sensor_id;sensor_type;location;lat;lon;timestamp;P1;durP1;ratioP1;P2;durP2;ratioP2
12296;SDS011;6211;49.124;9.152;2023-05-21T00:02:16;13.30;;;7.80;;
12296;SDS011;6211;49.124;9.152;2023-05-21T00:04:43;10.98;;;7.65;;
12296;SDS011;6211;49.124;9.152;2023-05-21T00:07:11;13.20;;;8.23;;
12296;SDS011;6211;49.124;9.152;2023-05-21T00:09:39;14.38;;;8.20;;
12296;SDS011;6211;49.124;9.152;2023-05-21T00:12:06;13.45;;;8.40;;
12296;SDS011;6211;49.124;9.152;2023-05-21T00:14:34;12.75;;;8.50;;
12296;SDS011;6211;49.124;9.152;2023-05-21T00:17:03;11.23;;;7.70;;
12296;SDS011;6211;49.124;9.152;2023-05-21T00:19:30;12.43;;;7.88;;
12296;SDS011;6211;49.124;9.152;2023-05-21T00:21:57;15.48;;;8.45;;
12296;SDS011;6211;49.124;9.152;2023-05-21T00:24:27;13.00;;;7.68;;
12296;SDS011;6211;49.124;9.152;2023-05-21T00:26:54;11.10;;;7.75;;
12296;SDS011;6211;49.124;9.152;2023-05-21T00:29:21;13.75;;;8.45;;
12296;SDS011;6211;49.124;9.152;2023-05-21T00:31:50;12.95;;;8.52;;
12296;SDS011;6211;49.124;9.152;2023-05-21T00:34:19;13.15;;;7.78;;
12296;SDS011;6211;49.124;9.152;2023-05-21T00:36:46;10.63;;;7.55;;
12296;SDS011;6211;49.124;9.152;2023-05-21T00:39:13;13.30;;;7.60;;
12296;SDS011;6211;49.124;9.152;2023-05-21T00:41:40;13.55;;;7.75;;
12296;SDS011;6211;49.124;9.152;2023-05-21T00:44:10;11.35;;;7.93;;
12296;SDS011;6211;49.124;9.152;2023-05-21T00:46:38;13.02;;;7.03;;
12296;SDS011;6211;49.124;9.152;2023-05-21T00:49:06;12.15;;;7.85;;
12296;SDS011;6211;49.124;9.152;2023-05-21T00:51:34;11.32;;;7.43;;
12296;SDS011;6211;49.124;9.152;2023-05-21T00:54:02;10.88;;;7.68;;
12296;SDS011;6211;49.124;9.152;2023-05-21T00:56:29;11.65;;;8.20;;
12296;SDS011;6211;49.124;9.152;2023-05-21T00:58:56;12.10;;;7.20;;
12296;SDS011;6211;49.124;9.152;2023-05-21T01:01:24;11.20;;;7.70;;
12296;SDS011;6211;49.124;9.152;2023-05-21T01:03:51;14.60;;;7.72;;
12296;SDS011;6211;49.124;9.152;2023-05-21T01:06:21;11.90;;;7.75;;
12296;SDS011;6211;49.124;9.152;2023-05-21T01:08:50;12.10;;;8.07;;
12296;SDS011;6211;49.124;9.152;2023-05-21T01:11:17;9.25;;;7.05;;
12296;SDS011;6211;49.124;9.152;2023-05-21T01:13:45;14.23;;;7.68;;
12296;SDS011;6211;49.124;9.152;2023-05-21T01:16:13;12.55;;;7.13;;
12296;SDS011;6211;49.124;9.152;2023-05-21T01:18:41;10.40;;;7.28;;
12296;SDS011;6211;49.124;9.152;2023-05-21T01:21:09;12.05;;;7.18;;
12296;SDS011;6211;49.124;9.152;2023-05-21T01:23:37;9.57;;;7.57;;
12296;SDS011;6211;49.124;9.152;2023-05-21T01:26:05;9.38;;;7.15;;
12296;SDS011;6211;49.124;9.152;2023-05-21T01:28:32;11.65;;;8.18;;
12296;SDS011;6211;49.124;9.152;2023-05-21T01:30:59;12.07;;;7.57;;
12296;SDS011;6211;49.124;9.152;2023-05-21T01:33:31;13.60;;;7.03;;
12296;SDS011;6211;49.124;9.152;2023-05-21T01:36:00;11.70;;;7.78;;
12296;SDS011;6211;49.124;9.152;2023-05-21T01:38:30;12.23;;;7.35;;
12296;SDS011;6211;49.124;9.152;2023-05-21T01:41:01;12.48;;;7.40;;
12296;SDS011;6211;49.124;9.152;2023-05-21T01:43:28;11.57;;;7.50;;
12296;SDS011;6211;49.124;9.152;2023-05-21T01:45:57;12.82;;;7.10;;
12296;SDS011;6211;49.124;9.152;2023-05-21T01:48:26;14.48;;;7.45;;
12296;SDS011;6211;49.124;9.152;2023-05-21T01:50:53;11.38;;;7.63;;
12296;SDS011;6211;49.124;9.152;2023-05-21T01:53:21;13.07;;;8.25;;
12296;SDS011;6211;49.124;9.152;2023-05-21T01:55:48;10.35;;;7.55;;
12296;SDS011;6211;49.124;9.152;2023-05-21T01:58:17;10.18;;;7.55;;
12296;SDS011;6211;49.124;9.152;2023-05-21T02:00:45;12.05;;;7.90;;
12296;SDS011;6211;49.124;9.152;2023-05-21T02:03:12;12.10;;;7.68;;
12296;SDS011;6211;49.124;9.152;2023-05-21T02:05:40;12.43;;;7.22;;
12296;SDS011;6211;49.124;9.152;2023-05-21T02:08:07;11.27;;;7.47;;
12296;SDS011;6211;49.124;9.152;2023-05-21T02:10:35;11.80;;;8.25;;
12296;SDS011;6211;49.124;9.152;2023-05-21T02:13:02;13.63;;;8.20;;
12296;SDS011;6211;49.124;9.152;2023-05-21T02:15:30;11.55;;;7.50;;
12296;SDS011;6211;49.124;9.152;2023-05-21T02:17:58;10.05;;;7.22;;
12296;SDS011;6211;49.124;9.152;2023-05-21T02:20:25;13.85;;;6.95;;
12296;SDS011;6211;49.124;9.152;2023-05-21T02:22:52;10.95;;;7.45;;
12296;SDS011;6211;49.124;9.152;2023-05-21T02:25:19;13.05;;;7.90;;
12296;SDS011;6211;49.124;9.152;2023-05-21T02:27:46;11.65;;;8.30;;
12296;SDS011;6211;49.124;9.152;2023-05-21T02:30:17;12.20;;;7.97;;
12296;SDS011;6211;49.124;9.152;2023-05-21T02:32:46;10.20;;;7.05;;
12296;SDS011;6211;49.124;9.152;2023-05-21T02:35:13;12.63;;;8.75;;
12296;SDS011;6211;49.124;9.152;2023-05-21T02:37:40;12.82;;;7.93;;
12296;SDS011;6211;49.124;9.152;2023-05-21T02:40:09;11.93;;;7.97;;
12296;SDS011;6211;49.124;9.152;2023-05-21T02:42:36;12.52;;;7.63;;
12296;SDS011;6211;49.124;9.152;2023-05-21T02:45:04;15.13;;;8.38;;
12296;SDS011;6211;49.124;9.152;2023-05-21T02:47:31;12.85;;;8.07;;
12296;SDS011;6211;49.124;9.152;2023-05-21T02:50:00;11.52;;;7.60;;
12296;SDS011;6211;49.124;9.152;2023-05-21T02:52:27;12.63;;;8.43;;
12296;SDS011;6211;49.124;9.152;2023-05-21T02:54:54;14.35;;;8.32;;
12296;SDS011;6211;49.124;9.152;2023-05-21T02:57:21;12.25;;;7.65;;
12296;SDS011;6211;49.124;9.152;2023-05-21T02:59:48;9.68;;;7.32;;
12296;SDS011;6211;49.124;9.152;2023-05-21T03:02:15;13.73;;;7.68;;
12296;SDS011;6211;49.124;9.152;2023-05-21T03:04:42;14.18;;;8.23;;
12296;SDS011;6211;49.124;9.152;2023-05-21T03:07:12;11.50;;;7.68;;
12296;SDS011;6211;49.124;9.152;2023-05-21T03:09:39;10.32;;;6.82;;
12296;SDS011;6211;49.124;9.152;2023-05-21T03:12:07;12.20;;;7.43;;
12296;SDS011;6211;49.124;9.152;2023-05-21T03:14:34;15.27;;;8.27;;
12296;SDS011;6211;49.124;9.152;2023-05-21T03:17:01;16.45;;;8.55;;
12296;SDS011;6211;49.124;9.152;2023-05-21T03:19:29;10.85;;;7.40;;
12296;SDS011;6211;49.124;9.152;2023-05-21T03:21:58;12.93;;;8.30;;
12296;SDS011;6211;49.124;9.152;2023-05-21T03:24:27;10.68;;;6.90;;
12296;SDS011;6211;49.124;9.152;2023-05-21T03:26:55;11.93;;;7.78;;
12296;SDS011;6211;49.124;9.152;2023-05-21T03:29:23;12.60;;;7.93;;
12296;SDS011;6211;49.124;9.152;2023-05-21T03:31:50;13.40;;;7.88;;
12296;SDS011;6211;49.124;9.152;2023-05-21T03:34:17;10.55;;;7.22;;
12296;SDS011;6211;49.124;9.152;2023-05-21T03:36:44;13.85;;;7.60;;
12296;SDS011;6211;49.124;9.152;2023-05-21T03:39:12;12.30;;;8.18;;
12296;SDS011;6211;49.124;9.152;2023-05-21T03:41:40;10.57;;;7.50;;
12296;SDS011;6211;49.124;9.152;2023-05-21T03:44:07;12.10;;;7.95;;
12296;SDS011;6211;49.124;9.152;2023-05-21T03:46:34;10.23;;;6.82;;
12296;SDS011;6211;49.124;9.152;2023-05-21T03:49:01;11.52;;;8.00;;
12296;SDS011;6211;49.124;9.152;2023-05-21T03:51:29;13.27;;;8.05;;
12296;SDS011;6211;49.124;9.152;2023-05-21T03:53:56;12.32;;;8.15;;
12296;SDS011;6211;49.124;9.152;2023-05-21T03:56:23;12.90;;;7.57;;
12296;SDS011;6211;49.124;9.152;2023-05-21T03:58:52;12.65;;;7.93;;
12296;SDS011;6211;49.124;9.152;2023-05-21T04:01:19;14.30;;;8.10;;
12296;SDS011;6211;49.124;9.152;2023-05-21T04:03:46;12.18;;;7.70;;
12296;SDS011;6211;49.124;9.152;2023-05-21T04:06:13;11.88;;;8.00;;
12296;SDS011;6211;49.124;9.152;2023-05-21T04:08:40;12.25;;;7.75;;
12296;SDS011;6211;49.124;9.152;2023-05-21T04:11:08;11.48;;;7.78;;
12296;SDS011;6211;49.124;9.152;2023-05-21T04:13:35;14.02;;;7.97;;
12296;SDS011;6211;49.124;9.152;2023-05-21T04:16:04;11.57;;;7.55;;
12296;SDS011;6211;49.124;9.152;2023-05-21T04:18:32;11.90;;;7.15;;
12296;SDS011;6211;49.124;9.152;2023-05-21T04:20:59;13.55;;;7.93;;
12296;SDS011;6211;49.124;9.152;2023-05-21T04:23:27;11.43;;;7.70;;
12296;SDS011;6211;49.124;9.152;2023-05-21T04:25:54;13.90;;;8.50;;
12296;SDS011;6211;49.124;9.152;2023-05-21T04:28:21;11.18;;;7.68;;
12296;SDS011;6211;49.124;9.152;2023-05-21T04:30:48;11.68;;;7.90;;
12296;SDS011;6211;49.124;9.152;2023-05-21T04:33:17;11.85;;;7.75;;
12296;SDS011;6211;49.124;9.152;2023-05-21T04:35:45;12.18;;;6.63;;
12296;SDS011;6211;49.124;9.152;2023-05-21T04:38:14;9.63;;;7.13;;
12296;SDS011;6211;49.124;9.152;2023-05-21T04:40:43;10.18;;;7.70;;
12296;SDS011;6211;49.124;9.152;2023-05-21T04:43:10;12.15;;;7.80;;
12296;SDS011;6211;49.124;9.152;2023-05-21T04:45:38;12.10;;;7.57;;
12296;SDS011;6211;49.124;9.152;2023-05-21T04:48:05;10.60;;;7.45;;
12296;SDS011;6211;49.124;9.152;2023-05-21T04:50:33;11.93;;;7.82;;
12296;SDS011;6211;49.124;9.152;2023-05-21T04:53:00;11.48;;;8.30;;
12296;SDS011;6211;49.124;9.152;2023-05-21T04:55:28;10.18;;;7.22;;
12296;SDS011;6211;49.124;9.152;2023-05-21T04:57:55;11.70;;;7.47;;
12296;SDS011;6211;49.124;9.152;2023-05-21T05:00:22;11.75;;;7.40;;
12296;SDS011;6211;49.124;9.152;2023-05-21T05:02:50;11.50;;;6.72;;
12296;SDS011;6211;49.124;9.152;2023-05-21T05:05:17;10.57;;;7.00;;
12296;SDS011;6211;49.124;9.152;2023-05-21T05:07:45;12.25;;;8.00;;
12296;SDS011;6211;49.124;9.152;2023-05-21T05:10:13;10.70;;;7.55;;
12296;SDS011;6211;49.124;9.152;2023-05-21T05:12:40;11.82;;;8.13;;
12296;SDS011;6211;49.124;9.152;2023-05-21T05:15:07;8.80;;;6.55;;
12296;SDS011;6211;49.124;9.152;2023-05-21T05:17:34;11.43;;;7.55;;
12296;SDS011;6211;49.124;9.152;2023-05-21T05:20:01;13.30;;;6.90;;
12296;SDS011;6211;49.124;9.152;2023-05-21T05:22:29;12.30;;;7.68;;
12296;SDS011;6211;49.124;9.152;2023-05-21T05:24:57;9.95;;;7.22;;
12296;SDS011;6211;49.124;9.152;2023-05-21T05:27:24;10.00;;;7.03;;
12296;SDS011;6211;49.124;9.152;2023-05-21T05:29:51;10.90;;;6.93;;
12296;SDS011;6211;49.124;9.152;2023-05-21T05:32:18;12.13;;;7.13;;
12296;SDS011;6211;49.124;9.152;2023-05-21T05:34:45;10.70;;;7.45;;
12296;SDS011;6211;49.124;9.152;2023-05-21T05:37:13;11.05;;;7.47;;
12296;SDS011;6211;49.124;9.152;2023-05-21T05:39:40;9.95;;;6.85;;
12296;SDS011;6211;49.124;9.152;2023-05-21T05:42:08;10.23;;;6.53;;
12296;SDS011;6211;49.124;9.152;2023-05-21T05:44:35;9.60;;;7.00;;
12296;SDS011;6211;49.124;9.152;2023-05-21T05:47:02;11.23;;;7.60;;
12296;SDS011;6211;49.124;9.152;2023-05-21T05:49:34;9.32;;;6.30;;
12296;SDS011;6211;49.124;9.152;2023-05-21T05:52:01;9.70;;;6.43;;
12296;SDS011;6211;49.124;9.152;2023-05-21T05:54:28;9.43;;;6.70;;
12296;SDS011;6211;49.124;9.152;2023-05-21T05:56:55;10.48;;;7.30;;
12296;SDS011;6211;49.124;9.152;2023-05-21T05:59:24;11.02;;;6.90;;
12296;SDS011;6211;49.124;9.152;2023-05-21T06:01:51;9.98;;;7.25;;
12296;SDS011;6211;49.124;9.152;2023-05-21T06:04:18;9.20;;;7.15;;
12296;SDS011;6211;49.124;9.152;2023-05-21T06:06:45;11.93;;;7.30;;
12296;SDS011;6211;49.124;9.152;2023-05-21T06:09:12;11.27;;;6.78;;
12296;SDS011;6211;49.124;9.152;2023-05-21T06:11:39;9.93;;;6.95;;
12296;SDS011;6211;49.124;9.152;2023-05-21T06:14:06;10.32;;;7.07;;
12296;SDS011;6211;49.124;9.152;2023-05-21T06:16:35;9.77;;;6.80;;
12296;SDS011;6211;49.124;9.152;2023-05-21T06:19:02;11.27;;;6.55;;
12296;SDS011;6211;49.124;9.152;2023-05-21T06:21:29;11.48;;;6.72;;
12296;SDS011;6211;49.124;9.152;2023-05-21T06:23:56;9.15;;;6.70;;
12296;SDS011;6211;49.124;9.152;2023-05-21T06:26:23;11.77;;;7.10;;
12296;SDS011;6211;49.124;9.152;2023-05-21T06:28:50;9.10;;;6.68;;
12296;SDS011;6211;49.124;9.152;2023-05-21T06:31:18;8.60;;;6.15;;
12296;SDS011;6211;49.124;9.152;2023-05-21T06:33:47;11.30;;;6.18;;
12296;SDS011;6211;49.124;9.152;2023-05-21T06:36:14;10.20;;;6.80;;
12296;SDS011;6211;49.124;9.152;2023-05-21T06:38:41;9.80;;;6.38;;
12296;SDS011;6211;49.124;9.152;2023-05-21T06:41:09;9.30;;;6.78;;
12296;SDS011;6211;49.124;9.152;2023-05-21T06:43:36;9.75;;;6.55;;
12296;SDS011;6211;49.124;9.152;2023-05-21T06:46:03;8.45;;;6.10;;
12296;SDS011;6211;49.124;9.152;2023-05-21T06:48:30;9.20;;;6.20;;
12296;SDS011;6211;49.124;9.152;2023-05-21T06:50:58;9.13;;;5.97;;
12296;SDS011;6211;49.124;9.152;2023-05-21T06:53:26;8.25;;;6.15;;
12296;SDS011;6211;49.124;9.152;2023-05-21T06:55:53;8.88;;;6.15;;
12296;SDS011;6211;49.124;9.152;2023-05-21T06:58:20;8.50;;;6.00;;
12296;SDS011;6211;49.124;9.152;2023-05-21T07:00:47;7.25;;;5.70;;
12296;SDS011;6211;49.124;9.152;2023-05-21T07:03:14;7.88;;;5.78;;
12296;SDS011;6211;49.124;9.152;2023-05-21T07:05:42;7.53;;;6.00;;
12296;SDS011;6211;49.124;9.152;2023-05-21T07:08:10;7.22;;;5.75;;
12296;SDS011;6211;49.124;9.152;2023-05-21T07:10:37;8.30;;;5.45;;
12296;SDS011;6211;49.124;9.152;2023-05-21T07:13:04;6.75;;;5.38;;
12296;SDS011;6211;49.124;9.152;2023-05-21T07:15:31;7.75;;;6.13;;
12296;SDS011;6211;49.124;9.152;2023-05-21T07:17:58;7.75;;;5.35;;
12296;SDS011;6211;49.124;9.152;2023-05-21T07:20:26;7.53;;;5.70;;
12296;SDS011;6211;49.124;9.152;2023-05-21T07:22:53;6.43;;;5.25;;
12296;SDS011;6211;49.124;9.152;2023-05-21T07:25:21;8.52;;;5.72;;
12296;SDS011;6211;49.124;9.152;2023-05-21T07:27:49;7.75;;;5.60;;
12296;SDS011;6211;49.124;9.152;2023-05-21T07:30:16;7.22;;;5.32;;
12296;SDS011;6211;49.124;9.152;2023-05-21T07:32:43;6.30;;;4.93;;
12296;SDS011;6211;49.124;9.152;2023-05-21T07:35:11;7.00;;;5.07;;
12296;SDS011;6211;49.124;9.152;2023-05-21T07:37:38;6.63;;;5.50;;
12296;SDS011;6211;49.124;9.152;2023-05-21T07:40:06;6.68;;;5.30;;
12296;SDS011;6211;49.124;9.152;2023-05-21T07:42:34;7.70;;;5.40;;
12296;SDS011;6211;49.124;9.152;2023-05-21T07:45:01;6.60;;;5.07;;
12296;SDS011;6211;49.124;9.152;2023-05-21T07:47:28;6.40;;;5.20;;
12296;SDS011;6211;49.124;9.152;2023-05-21T07:49:56;6.78;;;5.30;;
12296;SDS011;6211;49.124;9.152;2023-05-21T07:52:23;9.88;;;4.78;;
12296;SDS011;6211;49.124;9.152;2023-05-21T07:54:50;5.65;;;4.95;;
12296;SDS011;6211;49.124;9.152;2023-05-21T07:57:17;6.15;;;5.03;;
12296;SDS011;6211;49.124;9.152;2023-05-21T07:59:46;6.63;;;4.65;;
12296;SDS011;6211;49.124;9.152;2023-05-21T08:02:13;6.65;;;5.00;;
12296;SDS011;6211;49.124;9.152;2023-05-21T08:04:41;8.50;;;5.05;;
12296;SDS011;6211;49.124;9.152;2023-05-21T08:07:08;5.75;;;5.07;;
12296;SDS011;6211;49.124;9.152;2023-05-21T08:09:36;6.05;;;4.47;;
12296;SDS011;6211;49.124;9.152;2023-05-21T08:12:04;5.50;;;4.68;;
12296;SDS011;6211;49.124;9.152;2023-05-21T08:14:31;5.80;;;4.72;;
12296;SDS011;6211;49.124;9.152;2023-05-21T08:16:59;6.07;;;4.85;;
12296;SDS011;6211;49.124;9.152;2023-05-21T08:19:26;6.22;;;5.00;;
12296;SDS011;6211;49.124;9.152;2023-05-21T08:21:53;5.95;;;4.72;;
12296;SDS011;6211;49.124;9.152;2023-05-21T08:24:20;5.20;;;4.22;;
12296;SDS011;6211;49.124;9.152;2023-05-21T08:26:48;4.72;;;4.20;;
12296;SDS011;6211;49.124;9.152;2023-05-21T08:29:15;6.50;;;4.65;;
12296;SDS011;6211;49.124;9.152;2023-05-21T08:31:42;4.53;;;3.72;;
12296;SDS011;6211;49.124;9.152;2023-05-21T08:34:11;6.60;;;4.82;;
12296;SDS011;6211;49.124;9.152;2023-05-21T08:36:38;7.55;;;4.85;;
12296;SDS011;6211;49.124;9.152;2023-05-21T08:39:07;5.80;;;4.82;;
12296;SDS011;6211;49.124;9.152;2023-05-21T08:41:34;5.90;;;4.65;;
12296;SDS011;6211;49.124;9.152;2023-05-21T08:44:01;6.10;;;4.70;;
12296;SDS011;6211;49.124;9.152;2023-05-21T08:46:30;5.97;;;4.70;;
12296;SDS011;6211;49.124;9.152;2023-05-21T08:48:58;5.53;;;4.50;;
12296;SDS011;6211;49.124;9.152;2023-05-21T08:51:28;5.10;;;4.60;;
12296;SDS011;6211;49.124;9.152;2023-05-21T08:53:56;4.78;;;4.25;;
12296;SDS011;6211;49.124;9.152;2023-05-21T08:56:23;6.05;;;4.40;;
12296;SDS011;6211;49.124;9.152;2023-05-21T08:58:50;5.90;;;4.18;;
12296;SDS011;6211;49.124;9.152;2023-05-21T09:01:18;5.90;;;4.00;;
12296;SDS011;6211;49.124;9.152;2023-05-21T09:03:46;6.90;;;4.57;;
12296;SDS011;6211;49.124;9.152;2023-05-21T09:06:13;4.65;;;4.05;;
12296;SDS011;6211;49.124;9.152;2023-05-21T09:08:42;4.75;;;4.07;;
12296;SDS011;6211;49.124;9.152;2023-05-21T09:11:10;5.00;;;4.00;;
12296;SDS011;6211;49.124;9.152;2023-05-21T09:13:37;4.47;;;3.97;;
12296;SDS011;6211;49.124;9.152;2023-05-21T09:16:06;4.38;;;3.92;;
12296;SDS011;6211;49.124;9.152;2023-05-21T09:18:33;4.82;;;3.72;;
12296;SDS011;6211;49.124;9.152;2023-05-21T09:21:21;4.93;;;4.07;;
12296;SDS011;6211;49.124;9.152;2023-05-21T09:23:52;4.88;;;4.47;;
12296;SDS011;6211;49.124;9.152;2023-05-21T09:26:20;4.32;;;3.85;;
12296;SDS011;6211;49.124;9.152;2023-05-21T09:28:47;4.88;;;4.28;;
12296;SDS011;6211;49.124;9.152;2023-05-21T09:31:15;5.65;;;4.53;;
12296;SDS011;6211;49.124;9.152;2023-05-21T09:33:44;4.60;;;4.13;;
12296;SDS011;6211;49.124;9.152;2023-05-21T09:36:12;4.18;;;3.40;;
12296;SDS011;6211;49.124;9.152;2023-05-21T09:38:39;5.95;;;4.65;;
12296;SDS011;6211;49.124;9.152;2023-05-21T09:41:08;4.07;;;3.63;;
12296;SDS011;6211;49.124;9.152;2023-05-21T09:43:35;5.75;;;4.30;;
12296;SDS011;6211;49.124;9.152;2023-05-21T09:46:02;4.88;;;4.05;;
12296;SDS011;6211;49.124;9.152;2023-05-21T09:48:33;4.45;;;3.92;;
12296;SDS011;6211;49.124;9.152;2023-05-21T09:51:11;4.60;;;3.75;;
12296;SDS011;6211;49.124;9.152;2023-05-21T09:53:47;5.45;;;3.95;;
12296;SDS011;6211;49.124;9.152;2023-05-21T09:56:17;4.38;;;3.92;;
12296;SDS011;6211;49.124;9.152;2023-05-21T09:58:46;4.38;;;3.45;;
12296;SDS011;6211;49.124;9.152;2023-05-21T10:01:13;5.50;;;3.90;;
12296;SDS011;6211;49.124;9.152;2023-05-21T10:03:40;4.90;;;3.95;;
12296;SDS011;6211;49.124;9.152;2023-05-21T10:06:09;5.40;;;3.55;;
12296;SDS011;6211;49.124;9.152;2023-05-21T10:08:38;4.53;;;3.65;;
12296;SDS011;6211;49.124;9.152;2023-05-21T10:11:07;4.75;;;3.60;;
12296;SDS011;6211;49.124;9.152;2023-05-21T10:13:37;4.72;;;4.05;;
12296;SDS011;6211;49.124;9.152;2023-05-21T10:16:05;4.55;;;4.05;;
12296;SDS011;6211;49.124;9.152;2023-05-21T10:18:32;6.63;;;4.15;;
12296;SDS011;6211;49.124;9.152;2023-05-21T10:21:00;4.30;;;3.58;;
12296;SDS011;6211;49.124;9.152;2023-05-21T10:23:27;3.65;;;3.35;;
12296;SDS011;6211;49.124;9.152;2023-05-21T10:25:55;4.40;;;3.60;;
12296;SDS011;6211;49.124;9.152;2023-05-21T10:28:22;3.90;;;3.50;;
12296;SDS011;6211;49.124;9.152;2023-05-21T10:30:51;4.47;;;3.80;;
12296;SDS011;6211;49.124;9.152;2023-05-21T10:33:18;3.92;;;3.45;;
12296;SDS011;6211;49.124;9.152;2023-05-21T10:35:46;3.92;;;3.28;;
12296;SDS011;6211;49.124;9.152;2023-05-21T10:38:13;4.60;;;3.55;;
12296;SDS011;6211;49.124;9.152;2023-05-21T10:40:43;3.60;;;3.20;;
12296;SDS011;6211;49.124;9.152;2023-05-21T10:46:13;3.63;;;3.25;;
12296;SDS011;6211;49.124;9.152;2023-05-21T10:48:47;5.82;;;3.35;;
12296;SDS011;6211;49.124;9.152;2023-05-21T10:51:19;5.30;;;3.42;;
12296;SDS011;6211;49.124;9.152;2023-05-21T10:53:56;4.00;;;3.60;;
12296;SDS011;6211;49.124;9.152;2023-05-21T10:56:27;5.05;;;3.72;;
12296;SDS011;6211;49.124;9.152;2023-05-21T10:59:09;3.42;;;3.13;;
12296;SDS011;6211;49.124;9.152;2023-05-21T11:01:40;4.18;;;3.20;;
12296;SDS011;6211;49.124;9.152;2023-05-21T11:04:09;3.35;;;3.05;;
12296;SDS011;6211;49.124;9.152;2023-05-21T11:06:38;4.15;;;3.20;;
12296;SDS011;6211;49.124;9.152;2023-05-21T11:09:11;3.83;;;3.42;;
12296;SDS011;6211;49.124;9.152;2023-05-21T11:11:38;4.07;;;3.28;;
12296;SDS011;6211;49.124;9.152;2023-05-21T11:16:50;5.72;;;3.42;;
12296;SDS011;6211;49.124;9.152;2023-05-21T11:19:17;3.92;;;3.42;;
12296;SDS011;6211;49.124;9.152;2023-05-21T11:21:49;4.30;;;3.90;;
12296;SDS011;6211;49.124;9.152;2023-05-21T11:24:17;4.50;;;3.50;;
12296;SDS011;6211;49.124;9.152;2023-05-21T11:27:03;3.80;;;3.40;;
12296;SDS011;6211;49.124;9.152;2023-05-21T11:32:14;5.53;;;3.40;;
12296;SDS011;6211;49.124;9.152;2023-05-21T11:34:45;3.95;;;3.55;;
12296;SDS011;6211;49.124;9.152;2023-05-21T11:37:22;3.78;;;3.38;;
12296;SDS011;6211;49.124;9.152;2023-05-21T11:39:51;3.47;;;3.17;;
12296;SDS011;6211;49.124;9.152;2023-05-21T11:42:29;3.42;;;3.13;;
12296;SDS011;6211;49.124;9.152;2023-05-21T11:44:56;4.18;;;3.40;;
12296;SDS011;6211;49.124;9.152;2023-05-21T11:47:25;3.40;;;3.10;;
12296;SDS011;6211;49.124;9.152;2023-05-21T11:49:53;3.72;;;3.33;;
12296;SDS011;6211;49.124;9.152;2023-05-21T11:52:20;3.45;;;2.78;;
12296;SDS011;6211;49.124;9.152;2023-05-21T11:54:49;3.80;;;3.40;;
12296;SDS011;6211;49.124;9.152;2023-05-21T11:57:19;3.63;;;3.33;;
12296;SDS011;6211;49.124;9.152;2023-05-21T11:59:46;3.85;;;3.25;;
12296;SDS011;6211;49.124;9.152;2023-05-21T12:02:14;4.03;;;3.55;;
12296;SDS011;6211;49.124;9.152;2023-05-21T12:04:43;4.10;;;3.70;;
12296;SDS011;6211;49.124;9.152;2023-05-21T12:07:10;3.85;;;3.42;;
12296;SDS011;6211;49.124;9.152;2023-05-21T12:09:39;4.28;;;3.88;;
12296;SDS011;6211;49.124;9.152;2023-05-21T12:12:06;3.45;;;3.15;;
12296;SDS011;6211;49.124;9.152;2023-05-21T12:14:34;3.45;;;3.15;;
12296;SDS011;6211;49.124;9.152;2023-05-21T12:17:01;3.45;;;3.15;;
12296;SDS011;6211;49.124;9.152;2023-05-21T12:19:31;3.42;;;3.05;;
12296;SDS011;6211;49.124;9.152;2023-05-21T12:22:01;4.45;;;2.95;;
12296;SDS011;6211;49.124;9.152;2023-05-21T12:24:28;3.15;;;2.85;;
12296;SDS011;6211;49.124;9.152;2023-05-21T12:26:55;3.42;;;3.13;;
12296;SDS011;6211;49.124;9.152;2023-05-21T12:29:25;3.47;;;2.80;;
12296;SDS011;6211;49.124;9.152;2023-05-21T12:31:52;4.00;;;3.30;;
12296;SDS011;6211;49.124;9.152;2023-05-21T12:34:39;3.65;;;3.20;;
12296;SDS011;6211;49.124;9.152;2023-05-21T12:37:09;4.05;;;3.20;;
12296;SDS011;6211;49.124;9.152;2023-05-21T12:39:37;3.88;;;3.55;;
12296;SDS011;6211;49.124;9.152;2023-05-21T12:42:05;3.40;;;3.10;;
12296;SDS011;6211;49.124;9.152;2023-05-21T12:44:32;3.63;;;3.25;;
12296;SDS011;6211;49.124;9.152;2023-05-21T12:47:01;4.68;;;3.70;;
12296;SDS011;6211;49.124;9.152;2023-05-21T12:49:29;4.45;;;3.72;;
12296;SDS011;6211;49.124;9.152;2023-05-21T12:51:56;4.80;;;3.60;;
12296;SDS011;6211;49.124;9.152;2023-05-21T12:54:28;4.55;;;3.55;;
12296;SDS011;6211;49.124;9.152;2023-05-21T12:56:56;3.55;;;3.25;;
12296;SDS011;6211;49.124;9.152;2023-05-21T12:59:23;3.58;;;3.28;;
12296;SDS011;6211;49.124;9.152;2023-05-21T13:01:50;4.18;;;3.40;;
12296;SDS011;6211;49.124;9.152;2023-05-21T13:04:18;4.20;;;3.38;;
12296;SDS011;6211;49.124;9.152;2023-05-21T13:06:46;5.35;;;3.25;;
12296;SDS011;6211;49.124;9.152;2023-05-21T13:09:13;3.92;;;3.25;;
12296;SDS011;6211;49.124;9.152;2023-05-21T13:11:41;3.90;;;3.60;;
12296;SDS011;6211;49.124;9.152;2023-05-21T13:14:08;4.03;;;3.08;;
12296;SDS011;6211;49.124;9.152;2023-05-21T13:16:38;3.97;;;3.58;;
12296;SDS011;6211;49.124;9.152;2023-05-21T13:19:05;3.85;;;3.55;;
12296;SDS011;6211;49.124;9.152;2023-05-21T13:21:33;3.78;;;3.08;;
12296;SDS011;6211;49.124;9.152;2023-05-21T13:24:00;3.75;;;3.45;;
12296;SDS011;6211;49.124;9.152;2023-05-21T13:26:27;4.32;;;3.83;;
12296;SDS011;6211;49.124;9.152;2023-05-21T13:28:55;3.58;;;3.28;;
12296;SDS011;6211;49.124;9.152;2023-05-21T13:31:22;5.03;;;3.70;;
12296;SDS011;6211;49.124;9.152;2023-05-21T13:33:49;4.15;;;2.67;;
12296;SDS011;6211;49.124;9.152;2023-05-21T13:36:16;3.78;;;3.47;;
12296;SDS011;6211;49.124;9.152;2023-05-21T13:38:43;4.50;;;3.47;;
12296;SDS011;6211;49.124;9.152;2023-05-21T13:41:11;3.97;;;3.45;;
12296;SDS011;6211;49.124;9.152;2023-05-21T13:43:40;4.03;;;3.58;;
12296;SDS011;6211;49.124;9.152;2023-05-21T13:46:09;4.10;;;3.70;;
12296;SDS011;6211;49.124;9.152;2023-05-21T13:48:36;4.70;;;3.63;;
12296;SDS011;6211;49.124;9.152;2023-05-21T13:51:04;3.50;;;3.20;;
12296;SDS011;6211;49.124;9.152;2023-05-21T13:53:31;3.92;;;3.60;;
12296;SDS011;6211;49.124;9.152;2023-05-21T13:55:58;3.60;;;3.00;;
12296;SDS011;6211;49.124;9.152;2023-05-21T13:58:25;4.13;;;3.20;;
12296;SDS011;6211;49.124;9.152;2023-05-21T14:00:57;4.80;;;3.47;;
12296;SDS011;6211;49.124;9.152;2023-05-21T14:03:26;4.28;;;3.60;;
12296;SDS011;6211;49.124;9.152;2023-05-21T14:05:53;4.28;;;3.30;;
12296;SDS011;6211;49.124;9.152;2023-05-21T14:08:20;4.18;;;3.78;;
12296;SDS011;6211;49.124;9.152;2023-05-21T14:10:47;3.45;;;3.13;;
12296;SDS011;6211;49.124;9.152;2023-05-21T14:13:16;4.65;;;4.20;;
12296;SDS011;6211;49.124;9.152;2023-05-21T14:15:43;6.78;;;4.82;;
12296;SDS011;6211;49.124;9.152;2023-05-21T14:18:10;3.88;;;3.33;;
12296;SDS011;6211;49.124;9.152;2023-05-21T14:20:38;4.13;;;3.53;;
12296;SDS011;6211;49.124;9.152;2023-05-21T14:23:05;4.22;;;3.88;;
12296;SDS011;6211;49.124;9.152;2023-05-21T14:25:33;5.22;;;3.67;;
12296;SDS011;6211;49.124;9.152;2023-05-21T14:28:01;3.92;;;3.42;;
12296;SDS011;6211;49.124;9.152;2023-05-21T14:30:28;6.32;;;4.70;;
12296;SDS011;6211;49.124;9.152;2023-05-21T14:32:55;3.83;;;3.50;;
12296;SDS011;6211;49.124;9.152;2023-05-21T14:35:22;5.10;;;4.60;;
12296;SDS011;6211;49.124;9.152;2023-05-21T14:37:50;4.53;;;4.00;;
12296;SDS011;6211;49.124;9.152;2023-05-21T14:40:18;4.10;;;3.70;;
12296;SDS011;6211;49.124;9.152;2023-05-21T14:42:45;3.80;;;3.40;;
12296;SDS011;6211;49.124;9.152;2023-05-21T14:45:12;3.63;;;3.33;;
12296;SDS011;6211;49.124;9.152;2023-05-21T14:47:39;3.70;;;3.40;;
12296;SDS011;6211;49.124;9.152;2023-05-21T14:50:06;3.33;;;3.03;;
12296;SDS011;6211;49.124;9.152;2023-05-21T14:52:33;3.92;;;3.33;;
12296;SDS011;6211;49.124;9.152;2023-05-21T14:55:02;4.00;;;3.65;;
12296;SDS011;6211;49.124;9.152;2023-05-21T14:57:30;4.28;;;3.88;;
12296;SDS011;6211;49.124;9.152;2023-05-21T14:59:57;5.25;;;3.67;;
12296;SDS011;6211;49.124;9.152;2023-05-21T15:02:24;4.45;;;4.05;;
12296;SDS011;6211;49.124;9.152;2023-05-21T15:04:51;4.30;;;3.83;;
12296;SDS011;6211;49.124;9.152;2023-05-21T15:07:20;3.85;;;3.22;;
12296;SDS011;6211;49.124;9.152;2023-05-21T15:09:47;3.90;;;3.50;;